Time;durP1;ratioP1;P1;durP2;ratioP2;P2;SDS_P1;SDS_P2;PMS_P1;PMS_P2;Temp;Humidity;BMP_temperature;BMP_pressure;BME280_temperature;BME280_humidity;BME280_pressure;Samples;Min_cycle;Max_cycle;Signal;HPM_P1;HPM_P2
2023/03/03 00:02:07;;;;;;;48.38;22.02;;;4.10;99.90;;;;;;4993624;28;20015;-72
2023/03/03 00:04:33;;;;;;;48.42;22.52;;;4.10;99.90;;;;;;5008501;28;20040;-70
2023/03/03 00:06:59;;;;;;;48.50;23.35;;;4.10;99.90;;;;;;5007385;28;20098;-71
2023/03/03 00:09:24;;;;;;;47.30;22.60;;;4.10;99.90;;;;;;5004809;28;20598;-70
2023/03/03 00:11:55;;;;;;;49.72;23.60;;;4.10;99.90;;;;;;4995611;28;20022;-71
2023/03/03 00:14:27;;;;;;;45.13;22.33;;;4.00;99.90;;;;;;4999253;28;20054;-71
2023/03/03 00:16:54;;;;;;;47.28;21.95;;;4.00;99.90;;;;;;4992860;28;20045;-70
2023/03/03 00:19:20;;;;;;;42.92;21.50;;;4.00;99.90;;;;;;4994855;28;20080;-71
2023/03/03 00:21:49;;;;;;;49.75;23.67;;;4.00;99.90;;;;;;4994072;28;20058;-71
2023/03/03 00:24:35;;;;;;;47.17;23.05;;;3.90;99.90;;;;;;4989990;28;20486;-71
2023/03/03 00:27:16;;;;;;;46.85;22.27;;;3.90;99.90;;;;;;5001582;28;20024;-71
2023/03/03 00:29:48;;;;;;;49.83;23.63;;;3.90;99.90;;;;;;4997535;28;20464;-71
2023/03/03 00:32:28;;;;;;;52.57;24.90;;;3.80;99.90;;;;;;5000626;28;20054;-70
2023/03/03 00:34:59;;;;;;;48.08;22.92;;;3.80;99.90;;;;;;4992868;28;20289;-70
2023/03/03 00:37:29;;;;;;;52.42;23.15;;;3.70;99.90;;;;;;5004688;28;20026;-70
2023/03/03 00:40:20;;;;;;;51.17;24.05;;;3.70;99.90;;;;;;5001551;28;20032;-71
2023/03/03 00:42:50;;;;;;;47.20;23.25;;;3.60;99.90;;;;;;5005596;28;20040;-71
2023/03/03 00:45:33;;;;;;;47.42;22.27;;;3.60;99.90;;;;;;4989807;28;20044;-71
2023/03/03 00:48:22;;;;;;;49.30;22.95;;;3.60;99.90;;;;;;5004879;28;20042;-71
2023/03/03 00:50:48;;;;;;;50.55;23.80;;;3.60;99.90;;;;;;5000169;28;20479;-71
2023/03/03 00:53:16;;;;;;;55.38;24.58;;;3.50;99.90;;;;;;5007079;28;20034;-72
2023/03/03 00:55:44;;;;;;;53.50;23.67;;;3.60;99.90;;;;;;4993056;28;20490;-72
2023/03/03 00:58:10;;;;;;;48.75;22.60;;;3.60;99.90;;;;;;5002128;28;20870;-72
2023/03/03 01:00:38;;;;;;;53.00;23.95;;;3.50;99.90;;;;;;4990530;28;20478;-72
2023/03/03 01:03:06;;;;;;;50.30;23.85;;;3.50;99.90;;;;;;4991559;28;20015;-72
2023/03/03 01:05:34;;;;;;;50.22;23.25;;;3.50;99.90;;;;;;5009433;28;20038;-71
2023/03/03 01:08:00;;;;;;;53.20;24.15;;;3.50;99.90;;;;;;5011933;28;20109;-71
2023/03/03 01:10:28;;;;;;;48.45;22.77;;;3.40;99.90;;;;;;4998182;28;20030;-72
2023/03/03 01:12:55;;;;;;;55.38;24.65;;;3.40;99.90;;;;;;5000074;28;20025;-72
2023/03/03 01:15:20;;;;;;;50.38;23.00;;;3.40;99.90;;;;;;4994383;28;20394;-70
2023/03/03 01:17:46;;;;;;;56.03;26.45;;;3.30;99.90;;;;;;4997318;28;20045;-72
2023/03/03 01:20:13;;;;;;;51.58;25.10;;;3.30;99.90;;;;;;5012432;28;20035;-71
2023/03/03 01:22:39;;;;;;;52.80;24.90;;;3.30;99.90;;;;;;4986891;28;20050;-71
2023/03/03 01:25:05;;;;;;;59.78;26.00;;;3.20;99.90;;;;;;4999280;28;20107;-71
2023/03/03 01:27:31;;;;;;;62.28;27.25;;;3.20;99.90;;;;;;4993919;28;20031;-71
2023/03/03 01:29:57;;;;;;;62.45;30.33;;;3.30;99.90;;;;;;5001946;28;20027;-71
2023/03/03 01:32:24;;;;;;;64.68;29.20;;;3.30;99.90;;;;;;4999855;28;20022;-72
2023/03/03 01:34:50;;;;;;;72.50;30.92;;;3.30;99.90;;;;;;4996672;28;20041;-70
2023/03/03 01:37:15;;;;;;;65.10;28.73;;;3.30;99.90;;;;;;5004405;28;20030;-71
2023/03/03 01:39:41;;;;;;;62.47;28.08;;;3.30;99.90;;;;;;4997187;28;20098;-71
2023/03/03 01:42:07;;;;;;;67.05;29.55;;;3.40;99.90;;;;;;5011798;28;20521;-70
2023/03/03 01:44:33;;;;;;;63.70;28.50;;;3.30;99.90;;;;;;4985402;28;20156;-71
2023/03/03 01:47:19;;;;;;;71.10;29.95;;;3.10;99.90;;;;;;4997086;28;20019;-70
2023/03/03 01:49:48;;;;;;;65.50;28.60;;;3.10;99.90;;;;;;4995960;28;20028;-71
2023/03/03 01:52:26;;;;;;;66.28;28.85;;;3.00;99.90;;;;;;4997205;28;20083;-70
2023/03/03 01:54:56;;;;;;;75.82;31.42;;;2.90;99.90;;;;;;4986891;28;20046;-72
2023/03/03 01:57:30;;;;;;;74.03;32.05;;;2.90;99.90;;;;;;4987223;28;20087;-70
2023/03/03 01:59:57;;;;;;;75.28;31.25;;;3.00;99.90;;;;;;4988684;28;20557;-70
2023/03/03 02:02:26;;;;;;;74.32;30.83;;;3.10;99.90;;;;;;4989707;28;20057;-72
2023/03/03 02:04:51;;;;;;;69.78;29.83;;;3.30;99.90;;;;;;4985216;28;20079;-71
2023/03/03 02:07:18;;;;;;;68.43;33.17;;;3.20;99.90;;;;;;4988627;28;20383;-71
2023/03/03 02:09:56;;;;;;;72.22;30.65;;;3.20;99.90;;;;;;4983132;28;20030;-72
2023/03/03 02:12:29;;;;;;;75.40;30.80;;;3.10;99.90;;;;;;4987279;28;20026;-71
2023/03/03 02:14:55;;;;;;;79.95;33.60;;;3.10;99.90;;;;;;4987735;28;20028;-70
2023/03/03 02:17:21;;;;;;;77.78;31.23;;;3.10;99.90;;;;;;4988792;28;20384;-71
2023/03/03 02:19:51;;;;;;;76.45;30.98;;;2.90;99.90;;;;;;4985745;28;20383;-70
2023/03/03 02:22:25;;;;;;;79.88;31.42;;;2.90;99.90;;;;;;4993057;28;20030;-72
2023/03/03 02:25:00;;;;;;;80.35;30.50;;;2.90;99.90;;;;;;4988111;28;20070;-70
2023/03/03 02:27:28;;;;;;;80.80;30.67;;;3.10;99.90;;;;;;4987799;28;20030;-71
2023/03/03 02:29:54;;;;;;;80.70;31.48;;;3.10;99.90;;;;;;4984122;28;20018;-70
2023/03/03 02:32:20;;;;;;;87.40;32.33;;;3.20;99.90;;;;;;4987427;28;20038;-70
2023/03/03 02:34:51;;;;;;;67.80;28.58;;;3.20;99.90;;;;;;4987193;28;20038;-71
2023/03/03 02:37:17;;;;;;;77.43;31.73;;;3.40;99.90;;;;;;4989744;28;20041;-70
2023/03/03 02:39:43;;;;;;;76.65;31.75;;;3.40;99.90;;;;;;4990410;28;20084;-71
2023/03/03 02:42:20;;;;;;;76.03;30.45;;;3.40;99.90;;;;;;4984948;28;20022;-70
2023/03/03 02:44:46;;;;;;;78.20;29.73;;;3.40;99.90;;;;;;4989631;28;20117;-70
2023/03/03 02:47:12;;;;;;;79.47;30.75;;;3.40;99.90;;;;;;4987684;28;20408;-71
2023/03/03 02:49:38;;;;;;;72.97;30.25;;;3.30;99.90;;;;;;4989036;28;20038;-69
2023/03/03 02:52:08;;;;;;;74.43;30.58;;;3.40;99.90;;;;;;4986634;28;20027;-72
2023/03/03 02:54:35;;;;;;;71.93;30.08;;;3.50;99.90;;;;;;4990771;28;20040;-71
2023/03/03 02:57:01;;;;;;;75.53;29.88;;;3.40;99.90;;;;;;4988385;28;20535;-69
2023/03/03 02:59:27;;;;;;;65.85;27.80;;;3.40;99.90;;;;;;4982628;28;20041;-70
2023/03/03 03:01:52;;;;;;;76.80;29.42;;;3.40;99.90;;;;;;4990973;28;20022;-69
2023/03/03 03:04:21;;;;;;;72.63;27.88;;;3.30;99.90;;;;;;4989447;28;20035;-69
2023/03/03 03:06:47;;;;;;;69.95;27.15;;;3.00;99.90;;;;;;4987835;28;20114;-69
2023/03/03 03:09:14;;;;;;;73.15;27.58;;;3.00;99.90;;;;;;4990994;28;20114;-69
2023/03/03 03:11:40;;;;;;;80.90;29.40;;;2.80;99.90;;;;;;4982668;28;20105;-69
2023/03/03 03:14:10;;;;;;;70.35;27.27;;;2.70;99.90;;;;;;4986064;28;20773;-70
2023/03/03 03:16:36;;;;;;;72.32;27.63;;;2.60;99.90;;;;;;4982535;28;20023;-69
2023/03/03 03:19:02;;;;;;;74.38;30.02;;;2.60;99.90;;;;;;4987395;28;20046;-69
2023/03/03 03:21:28;;;;;;;77.43;29.38;;;2.60;99.90;;;;;;4984977;28;20023;-71
2023/03/03 03:23:54;;;;;;;79.88;30.60;;;2.70;99.90;;;;;;4989231;28;20487;-71
2023/03/03 03:26:20;;;;;;;77.97;29.80;;;2.70;99.90;;;;;;4988328;28;20540;-71
2023/03/03 03:28:50;;;;;;;82.35;30.65;;;2.60;99.90;;;;;;4990114;28;20030;-69
2023/03/03 03:31:17;;;;;;;64.95;27.00;;;2.70;99.90;;;;;;4990425;28;20018;-70
2023/03/03 03:33:42;;;;;;;82.00;29.67;;;2.60;99.90;;;;;;4987080;28;20063;-70
2023/03/03 03:36:09;;;;;;;74.95;27.90;;;2.70;99.90;;;;;;4983044;28;20054;-69
2023/03/03 03:38:38;;;;;;;76.60;28.50;;;2.80;99.90;;;;;;4988049;28;20038;-69
2023/03/03 03:41:05;;;;;;;68.72;29.08;;;2.80;99.90;;;;;;4988232;28;20133;-70
2023/03/03 03:43:31;;;;;;;78.07;31.77;;;2.80;99.90;;;;;;4985239;28;20045;-69
2023/03/03 03:45:57;;;;;;;81.65;31.38;;;2.90;99.90;;;;;;4984894;28;20030;-70
2023/03/03 03:48:22;;;;;;;78.60;31.08;;;2.90;99.90;;;;;;4990064;28;20030;-69
2023/03/03 03:50:49;;;;;;;74.25;29.15;;;2.80;99.90;;;;;;4982680;28;20031;-69
2023/03/03 03:53:15;;;;;;;74.82;28.75;;;2.70;99.90;;;;;;4982113;28;20027;-70
2023/03/03 03:55:41;;;;;;;73.32;28.83;;;2.70;99.90;;;;;;4981100;28;20027;-69
2023/03/03 03:58:08;;;;;;;69.40;27.70;;;2.70;99.90;;;;;;4979461;28;20057;-69
2023/03/03 04:00:33;;;;;;;75.00;29.50;;;2.70;99.90;;;;;;4985788;28;20065;-69
2023/03/03 04:02:59;;;;;;;70.82;27.75;;;2.80;99.90;;;;;;4985806;28;20033;-71
2023/03/03 04:05:25;;;;;;;70.38;26.35;;;2.70;99.90;;;;;;4988282;28;20200;-70
2023/03/03 04:07:50;;;;;;;70.78;28.45;;;2.50;99.90;;;;;;4983420;28;20038;-70
2023/03/03 04:10:17;;;;;;;81.10;30.10;;;2.50;99.90;;;;;;4992938;28;20049;-69
2023/03/03 04:12:42;;;;;;;79.22;29.65;;;2.70;99.90;;;;;;4993352;28;20103;-70
2023/03/03 04:15:10;;;;;;;71.38;27.60;;;2.60;99.90;;;;;;4992150;28;20057;-72
2023/03/03 04:17:36;;;;;;;79.07;28.48;;;2.60;99.90;;;;;;4982400;28;20039;-71
2023/03/03 04:20:04;;;;;;;77.32;29.67;;;2.80;99.90;;;;;;4988497;28;20038;-70
2023/03/03 04:22:32;;;;;;;78.93;29.15;;;2.80;99.90;;;;;;4995194;28;20027;-69
2023/03/03 04:24:59;;;;;;;71.28;30.02;;;2.80;99.90;;;;;;4983307;28;20378;-71
2023/03/03 04:27:25;;;;;;;74.78;30.05;;;2.80;99.90;;;;;;4986755;28;20022;-70
2023/03/03 04:29:50;;;;;;;78.65;29.73;;;2.70;99.90;;;;;;4988962;28;20026;-70
2023/03/03 04:32:17;;;;;;;73.72;28.10;;;2.70;99.90;;;;;;4979631;28;20096;-70
2023/03/03 04:34:43;;;;;;;72.95;29.00;;;2.70;99.90;;;;;;4986781;28;20022;-70
2023/03/03 04:37:09;;;;;;;76.93;29.70;;;2.90;99.90;;;;;;4992450;28;20022;-71
2023/03/03 04:39:34;;;;;;;79.80;29.45;;;3.00;99.90;;;;;;4991378;28;20441;-70
2023/03/03 04:42:00;;;;;;;71.65;28.88;;;3.00;99.90;;;;;;4985680;28;20475;-70
2023/03/03 04:44:26;;;;;;;82.55;29.92;;;3.00;99.90;;;;;;4986586;28;20077;-71
2023/03/03 04:46:51;;;;;;;76.60;28.65;;;3.00;99.90;;;;;;4986070;28;20030;-71
2023/03/03 04:49:17;;;;;;;71.28;28.27;;;3.00;99.90;;;;;;4987485;28;20034;-71
2023/03/03 04:51:43;;;;;;;71.43;28.35;;;3.00;99.90;;;;;;4988872;28;20612;-71
2023/03/03 04:54:08;;;;;;;70.20;28.42;;;3.10;99.90;;;;;;4983018;28;20101;-71
2023/03/03 04:56:34;;;;;;;75.35;28.95;;;3.10;99.90;;;;;;4985498;28;20031;-71
2023/03/03 04:59:00;;;;;;;79.93;30.15;;;3.20;99.90;;;;;;4990615;28;20034;-70
2023/03/03 05:01:25;;;;;;;75.10;29.75;;;3.20;99.90;;;;;;4988616;28;20501;-71
2023/03/03 05:03:51;;;;;;;79.03;28.90;;;3.20;99.90;;;;;;4988970;28;20034;-70
2023/03/03 05:06:17;;;;;;;74.75;29.90;;;3.20;99.90;;;;;;4988494;28;20027;-70
2023/03/03 05:08:44;;;;;;;84.63;31.08;;;3.20;99.90;;;;;;4991411;28;20034;-70
2023/03/03 05:11:10;;;;;;;75.15;29.17;;;3.10;99.90;;;;;;4986816;28;20027;-70
2023/03/03 05:13:36;;;;;;;69.38;28.50;;;3.10;99.90;;;;;;4992494;28;20038;-70
2023/03/03 05:16:02;;;;;;;70.10;28.42;;;3.00;99.90;;;;;;4988280;28;20022;-70
2023/03/03 05:18:27;;;;;;;71.63;28.50;;;2.90;99.90;;;;;;4987826;28;20037;-72
2023/03/03 05:20:53;;;;;;;70.40;28.38;;;2.80;99.90;;;;;;4988285;28;20138;-72
2023/03/03 05:23:20;;;;;;;71.30;28.35;;;2.80;99.90;;;;;;4990497;28;20029;-72
2023/03/03 05:25:49;;;;;;;74.20;29.70;;;2.80;99.90;;;;;;4990289;28;20026;-74
2023/03/03 05:28:15;;;;;;;73.32;28.25;;;2.90;99.90;;;;;;4983150;28;20425;-74
2023/03/03 05:30:40;;;;;;;76.60;30.83;;;3.00;99.90;;;;;;4993377;28;20029;-74
2023/03/03 05:33:06;;;;;;;73.60;28.80;;;2.90;99.90;;;;;;4985872;28;20082;-74
2023/03/03 05:35:33;;;;;;;70.82;29.48;;;2.90;99.90;;;;;;4992879;28;20034;-74
2023/03/03 05:37:59;;;;;;;67.65;28.90;;;2.90;99.90;;;;;;4988643;28;20479;-73
2023/03/03 05:40:25;;;;;;;81.35;31.73;;;3.00;99.90;;;;;;4991987;28;20062;-72
2023/03/03 05:42:51;;;;;;;73.43;30.63;;;3.00;99.90;;;;;;4986888;28;20058;-73
2023/03/03 05:45:19;;;;;;;78.18;32.20;;;3.00;99.90;;;;;;4992126;28;20030;-73
2023/03/03 05:47:46;;;;;;;75.53;30.80;;;2.90;99.90;;;;;;4982611;28;20036;-72
2023/03/03 05:50:12;;;;;;;72.80;31.02;;;2.80;99.90;;;;;;4985126;28;20034;-72
2023/03/03 05:52:38;;;;;;;75.68;30.35;;;2.90;99.90;;;;;;4986436;28;20053;-74
2023/03/03 05:55:04;;;;;;;72.38;30.23;;;2.80;99.90;;;;;;4991353;28;20066;-72
2023/03/03 05:57:30;;;;;;;78.30;29.80;;;2.90;99.90;;;;;;4984208;28;20038;-72
2023/03/03 05:59:56;;;;;;;67.97;28.38;;;2.90;99.90;;;;;;4990487;28;20065;-73
2023/03/03 06:02:21;;;;;;;66.68;28.65;;;3.10;99.90;;;;;;4979877;28;20102;-73
2023/03/03 06:04:47;;;;;;;74.22;30.83;;;3.10;99.90;;;;;;4990063;28;20432;-71
2023/03/03 06:07:12;;;;;;;74.93;32.38;;;3.20;99.90;;;;;;4983445;28;20433;-73
2023/03/03 06:09:38;;;;;;;72.55;29.27;;;3.20;99.90;;;;;;4993290;28;20026;-72
2023/03/03 06:12:04;;;;;;;70.70;29.13;;;3.20;99.90;;;;;;4979870;28;20048;-72
2023/03/03 06:14:30;;;;;;;71.75;28.50;;;3.20;99.90;;;;;;4988346;28;20034;-71
2023/03/03 06:16:56;;;;;;;70.82;28.85;;;3.00;99.90;;;;;;4989505;28;20091;-71
2023/03/03 06:19:23;;;;;;;77.45;31.15;;;3.00;99.90;;;;;;4984898;28;20039;-72
2023/03/03 06:21:49;;;;;;;69.55;29.58;;;3.00;99.90;;;;;;4992046;28;20037;-71
2023/03/03 06:24:14;;;;;;;67.45;28.20;;;3.00;99.90;;;;;;4990027;28;20117;-72
2023/03/03 06:26:41;;;;;;;60.08;27.75;;;3.10;99.90;;;;;;4991959;28;20382;-71
2023/03/03 06:29:06;;;;;;;69.90;30.75;;;3.20;99.90;;;;;;4988808;28;20371;-69
2023/03/03 06:31:32;;;;;;;69.90;28.98;;;3.10;99.90;;;;;;4991304;28;20076;-71
2023/03/03 06:33:58;;;;;;;64.53;28.05;;;3.00;99.90;;;;;;4984170;28;20026;-71
2023/03/03 06:36:24;;;;;;;65.07;29.48;;;3.00;99.90;;;;;;4989741;28;20091;-71
2023/03/03 06:38:50;;;;;;;65.40;29.85;;;3.00;99.90;;;;;;4986825;28;20090;-71
2023/03/03 06:41:16;;;;;;;70.50;28.92;;;3.10;99.90;;;;;;4985468;28;20360;-71
2023/03/03 06:43:42;;;;;;;72.22;29.38;;;3.10;99.90;;;;;;4985055;28;20030;-71
2023/03/03 06:46:07;;;;;;;70.75;29.60;;;3.20;99.90;;;;;;4989882;28;20026;-71
2023/03/03 06:48:33;;;;;;;74.22;30.88;;;3.20;99.90;;;;;;4992964;28;20553;-71
2023/03/03 06:51:02;;;;;;;75.80;30.88;;;3.30;99.90;;;;;;4985176;28;20027;-70
2023/03/03 06:53:32;;;;;;;70.90;29.52;;;3.30;99.90;;;;;;4982774;28;20383;-71
2023/03/03 06:55:57;;;;;;;71.95;29.63;;;3.20;99.90;;;;;;4982105;28;20125;-71
2023/03/03 06:58:26;;;;;;;63.83;27.35;;;3.30;99.90;;;;;;4983456;28;20122;-71
2023/03/03 07:00:59;;;;;;;63.47;25.92;;;3.20;99.90;;;;;;4991637;28;20030;-71
2023/03/03 07:03:34;;;;;;;65.50;26.83;;;3.10;99.90;;;;;;4986722;28;20027;-72
2023/03/03 07:06:05;;;;;;;67.10;27.13;;;3.10;99.90;;;;;;4988116;28;20076;-72
2023/03/03 07:08:31;;;;;;;62.60;26.48;;;3.10;99.90;;;;;;4989287;28;20497;-70
2023/03/03 07:11:05;;;;;;;63.95;25.60;;;3.00;99.90;;;;;;4984270;28;20030;-71
2023/03/03 07:13:32;;;;;;;60.22;24.85;;;2.90;99.90;;;;;;4990835;28;20026;-70
2023/03/03 07:16:01;;;;;;;62.35;26.40;;;2.90;99.90;;;;;;4989467;28;20514;-71
2023/03/03 07:18:56;;;;;;;62.63;25.02;;;2.80;99.90;;;;;;4984572;28;20501;-71
2023/03/03 07:21:34;;;;;;;63.40;26.65;;;2.90;99.90;;;;;;4988555;28;20030;-72
2023/03/03 07:24:11;;;;;;;70.43;28.40;;;3.00;99.90;;;;;;4988236;28;20027;-71
2023/03/03 07:26:37;;;;;;;73.68;28.25;;;3.10;99.90;;;;;;4979530;28;20073;-73
2023/03/03 07:29:15;;;;;;;73.68;27.90;;;3.20;99.90;;;;;;4988317;28;20457;-70
2023/03/03 07:31:44;;;;;;;70.20;26.35;;;3.30;99.90;;;;;;4988180;28;20026;-71
2023/03/03 07:34:49;;;;;;;60.40;25.73;;;3.20;99.90;;;;;;4988513;28;20088;-71
2023/03/03 07:37:25;;;;;;;66.05;26.50;;;3.20;99.90;;;;;;4997476;28;20058;-71
2023/03/03 07:39:50;;;;;;;65.90;28.30;;;3.10;99.90;;;;;;4978328;28;20122;-71
2023/03/03 07:42:39;;;;;;;64.80;27.52;;;3.20;99.90;;;;;;4981834;28;20050;-71
2023/03/03 07:45:23;;;;;;;62.88;26.70;;;3.10;99.90;;;;;;4985763;28;20041;-72
2023/03/03 07:47:49;;;;;;;66.57;27.08;;;3.20;99.90;;;;;;4980639;28;20033;-71
2023/03/03 07:50:18;;;;;;;60.80;25.20;;;3.20;99.90;;;;;;4989211;28;20034;-72
2023/03/03 07:52:59;;;;;;;60.55;26.73;;;3.10;99.90;;;;;;4988427;28;20086;-71
2023/03/03 07:55:31;;;;;;;61.35;26.90;;;3.20;99.90;;;;;;4987379;28;20031;-71
2023/03/03 07:58:13;;;;;;;61.25;24.77;;;3.30;99.90;;;;;;4981629;28;20133;-71
2023/03/03 08:00:39;;;;;;;64.82;25.45;;;3.30;99.90;;;;;;4988082;28;20026;-73
2023/03/03 08:03:18;;;;;;;55.45;23.02;;;3.40;99.90;;;;;;4977904;28;20019;-72
2023/03/03 08:05:47;;;;;;;59.45;23.83;;;3.40;99.90;;;;;;4988185;28;20037;-72
2023/03/03 08:08:35;;;;;;;58.20;23.42;;;3.50;99.90;;;;;;4986186;28;20504;-70
2023/03/03 08:11:02;;;;;;;55.75;22.92;;;3.50;99.90;;;;;;4982923;28;20483;-74
2023/03/03 08:13:36;;;;;;;57.55;22.85;;;3.50;99.90;;;;;;4984194;28;20419;-70
2023/03/03 08:16:08;;;;;;;48.67;21.88;;;3.30;99.90;;;;;;4979903;28;20023;-70
2023/03/03 08:18:35;;;;;;;54.83;23.20;;;3.40;99.90;;;;;;4985890;28;20087;-73
2023/03/03 08:21:03;;;;;;;48.60;21.23;;;3.50;99.90;;;;;;4984166;28;20033;-70
2023/03/03 08:23:29;;;;;;;50.08;21.08;;;3.50;99.90;;;;;;5018189;28;20033;-71
2023/03/03 08:25:55;;;;;;;52.95;22.15;;;3.50;99.90;;;;;;4989657;28;20027;-71
2023/03/03 08:28:21;;;;;;;49.47;20.08;;;3.50;99.90;;;;;;4982067;28;20034;-71
2023/03/03 08:30:47;;;;;;;50.22;19.63;;;3.50;99.90;;;;;;4986419;28;20053;-71
2023/03/03 08:33:14;;;;;;;44.03;18.90;;;3.60;99.90;;;;;;4987044;28;20497;-70
2023/03/03 08:35:40;;;;;;;43.65;18.30;;;3.70;99.90;;;;;;4990888;28;20027;-70
2023/03/03 08:38:06;;;;;;;43.85;18.52;;;3.80;99.90;;;;;;4984120;28;20045;-70
2023/03/03 08:40:33;;;;;;;49.13;19.50;;;3.70;99.90;;;;;;4988680;28;20145;-69
2023/03/03 08:42:59;;;;;;;43.50;18.70;;;3.70;99.90;;;;;;4977227;28;20092;-70
2023/03/03 08:45:26;;;;;;;51.42;20.90;;;3.80;99.90;;;;;;4983576;28;20106;-70
2023/03/03 08:47:52;;;;;;;45.45;19.90;;;3.80;99.90;;;;;;4980678;28;20034;-70
2023/03/03 08:50:18;;;;;;;46.00;19.40;;;4.00;99.90;;;;;;4985361;28;20029;-69
2023/03/03 08:52:43;;;;;;;44.10;18.95;;;3.90;99.90;;;;;;4983501;28;20550;-70
2023/03/03 08:55:10;;;;;;;41.40;18.38;;;3.80;99.90;;;;;;4991098;28;20712;-70
2023/03/03 08:57:37;;;;;;;46.28;19.75;;;3.90;99.90;;;;;;4985137;28;20031;-70
2023/03/03 09:00:05;;;;;;;47.40;19.45;;;4.00;99.90;;;;;;4989464;28;20031;-70
2023/03/03 09:02:30;;;;;;;45.13;18.10;;;3.90;99.90;;;;;;4985758;28;20023;-70
2023/03/03 09:04:56;;;;;;;43.95;19.23;;;4.00;99.90;;;;;;4984893;28;20478;-70
2023/03/03 09:07:22;;;;;;;45.55;19.13;;;4.00;99.90;;;;;;4987358;28;20058;-70
2023/03/03 09:09:47;;;;;;;46.50;19.17;;;4.00;99.90;;;;;;4990865;28;20083;-70
2023/03/03 09:12:28;;;;;;;45.33;19.98;;;4.00;99.90;;;;;;4981464;28;20066;-70
2023/03/03 09:14:57;;;;;;;50.08;20.48;;;4.00;99.90;;;;;;4988609;28;20113;-70
2023/03/03 09:17:25;;;;;;;47.30;20.95;;;4.00;99.90;;;;;;4982564;28;20037;-72
2023/03/03 09:19:53;;;;;;;47.42;21.30;;;4.10;99.90;;;;;;4987877;28;20133;-69
2023/03/03 09:22:24;;;;;;;44.45;19.17;;;4.10;99.90;;;;;;5000453;28;20033;-68
2023/03/03 09:24:52;;;;;;;45.70;18.50;;;3.90;99.90;;;;;;4991469;28;20541;-71
2023/03/03 09:27:24;;;;;;;43.38;17.85;;;3.90;99.90;;;;;;4985791;28;20062;-69
2023/03/03 09:29:50;;;;;;;41.10;18.20;;;3.80;99.90;;;;;;4985100;28;20026;-73
2023/03/03 09:32:18;;;;;;;45.80;19.88;;;3.90;99.90;;;;;;4982836;28;20797;-68
2023/03/03 09:34:46;;;;;;;46.65;19.42;;;3.90;99.90;;;;;;4990023;28;20034;-68
2023/03/03 09:37:43;;;;;;;43.95;19.85;;;4.00;99.90;;;;;;4983976;28;20498;-70
2023/03/03 09:40:41;;;;;;;43.42;19.13;;;3.90;99.90;;;;;;5003512;28;20046;-68
2023/03/03 09:43:51;;;;;;;42.03;17.80;;;4.00;99.90;;;;;;4988737;28;20038;-70
2023/03/03 09:46:26;;;;;;;45.15;19.30;;;4.10;99.90;;;;;;4990728;28;20057;-70
2023/03/03 09:49:04;;;;;;;49.30;21.00;;;4.10;99.90;;;;;;4990767;28;20042;-69
2023/03/03 09:51:46;;;;;;;47.88;20.38;;;4.10;99.90;;;;;;4992923;28;20109;-68
2023/03/03 09:54:17;;;;;;;47.50;20.23;;;4.10;99.90;;;;;;4991201;28;20023;-69
2023/03/03 09:57:08;;;;;;;52.60;20.38;;;4.20;99.90;;;;;;4991631;28;20509;-68
2023/03/03 09:59:44;;;;;;;46.65;20.42;;;4.30;99.90;;;;;;4988650;28;20121;-71
2023/03/03 10:02:34;;;;;;;42.53;18.63;;;4.40;99.90;;;;;;4983541;28;20121;-72
2023/03/03 10:05:28;;;;;;;41.88;19.60;;;4.60;99.90;;;;;;4991176;28;20037;-70
2023/03/03 10:08:00;;;;;;;45.53;20.63;;;4.50;99.90;;;;;;4979733;28;20025;-71
2023/03/03 10:10:44;;;;;;;48.47;20.25;;;4.50;99.90;;;;;;4987656;28;20449;-70
2023/03/03 10:13:19;;;;;;;45.20;20.38;;;4.70;99.90;;;;;;4985564;28;20129;-73
2023/03/03 10:16:22;;;;;;;44.83;21.50;;;4.90;99.90;;;;;;4991595;28;20054;-74
2023/03/03 10:19:01;;;;;;;38.40;17.15;;;5.00;99.90;;;;;;4985066;28;20069;-69
2023/03/03 10:21:48;;;;;;;46.67;19.50;;;4.90;99.90;;;;;;4990487;28;20363;-73
2023/03/03 10:24:41;;;;;;;46.92;19.75;;;5.00;99.90;;;;;;4988835;28;20037;-70
2023/03/03 10:27:45;;;;;;;39.90;17.98;;;5.00;99.90;;;;;;4986084;28;20525;-70
2023/03/03 10:30:27;;;;;;;43.63;19.50;;;5.00;99.90;;;;;;4983203;28;20173;-70
2023/03/03 10:33:03;;;;;;;43.75;19.55;;;5.00;99.90;;;;;;4987260;28;20026;-72
2023/03/03 10:35:56;;;;;;;44.75;20.15;;;4.80;99.90;;;;;;4990107;28;20569;-73
2023/03/03 10:38:39;;;;;;;44.00;19.15;;;4.90;99.90;;;;;;4980652;28;20065;-75
2023/03/03 10:41:19;;;;;;;40.67;19.33;;;5.00;99.90;;;;;;4980309;28;20046;-72
2023/03/03 10:44:04;;;;;;;41.83;19.00;;;5.10;99.90;;;;;;4990859;28;20069;-73
2023/03/03 10:46:45;;;;;;;38.47;19.70;;;5.20;99.90;;;;;;4984064;28;20045;-72
2023/03/03 10:49:19;;;;;;;37.40;17.65;;;5.10;99.90;;;;;;4977764;28;20089;-72
2023/03/03 10:52:00;;;;;;;42.10;17.90;;;5.10;99.90;;;;;;4984827;28;20490;-71
2023/03/03 10:54:47;;;;;;;40.83;18.77;;;5.10;99.90;;;;;;4988216;28;20030;-72
2023/03/03 10:57:27;;;;;;;39.92;18.58;;;5.20;99.90;;;;;;4110581;28;10001026;-70
2023/03/03 11:00:14;;;;;;;39.63;17.67;;;5.30;99.90;;;;;;4983425;28;20128;-75
2023/03/03 11:02:52;;;;;;;36.90;16.98;;;5.40;99.90;;;;;;4982254;28;20492;-73
2023/03/03 11:05:31;;;;;;;43.40;18.25;;;5.40;99.90;;;;;;4984965;28;20071;-72
2023/03/03 11:08:19;;;;;;;40.53;17.50;;;5.50;99.90;;;;;;4985603;28;20045;-72
2023/03/03 11:10:47;;;;;;;39.90;17.75;;;5.70;99.90;;;;;;4980364;28;20030;-75
2023/03/03 11:13:35;;;;;;;38.53;17.52;;;5.90;99.90;;;;;;4987658;28;20057;-75
2023/03/03 11:16:38;;;;;;;37.85;16.75;;;6.00;99.90;;;;;;4987995;28;20030;-72
2023/03/03 11:19:22;;;;;;;34.47;16.48;;;5.90;99.90;;;;;;4987432;28;20050;-74
2023/03/03 11:22:06;;;;;;;37.85;16.75;;;5.80;99.90;;;;;;4985665;28;20035;-73
2023/03/03 11:25:24;;;;;;;37.78;17.40;;;5.90;99.90;;;;;;4987668;28;20072;-72
2023/03/03 11:27:58;;;;;;;36.55;16.30;;;6.00;99.90;;;;;;4988225;28;20067;-76
2023/03/03 11:31:02;;;;;;;36.75;17.27;;;6.10;99.90;;;;;;4982250;28;20037;-74
2023/03/03 11:33:27;;;;;;;;;;;6.30;99.90;;;;;;4983540;28;20486;-72
2023/03/03 11:36:08;;;;;;;31.77;16.13;;;6.50;99.90;;;;;;4979072;28;19906;-75
2023/03/03 11:38:43;;;;;;;39.55;17.50;;;6.60;99.90;;;;;;4984302;28;20061;-74
2023/03/03 11:41:36;;;;;;;35.65;17.58;;;6.60;99.90;;;;;;4984144;28;20425;-74
2023/03/03 11:44:29;;;;;;;37.28;17.63;;;6.70;99.90;;;;;;4983216;28;20058;-74
2023/03/03 11:47:18;;;;;;;41.50;19.00;;;6.80;99.90;;;;;;4985885;28;20041;-73
2023/03/03 11:49:53;;;;;;;40.30;18.95;;;6.90;99.90;;;;;;4984175;28;20182;-75
2023/03/03 11:52:52;;;;;;;35.10;17.10;;;6.90;99.90;;;;;;4986385;28;20070;-76
2023/03/03 11:55:35;;;;;;;39.20;16.80;;;6.70;99.90;;;;;;4977645;28;20063;-74
2023/03/03 11:58:19;;;;;;;40.25;17.73;;;6.70;99.90;;;;;;4981372;28;20105;-73
2023/03/03 12:00:58;;;;;;;34.53;16.23;;;6.80;99.90;;;;;;4981608;28;20035;-73
2023/03/03 12:03:39;;;;;;;32.33;15.23;;;6.80;99.90;;;;;;4985558;28;20034;-75
2023/03/03 12:06:29;;;;;;;33.60;16.08;;;6.80;99.90;;;;;;4980661;28;20023;-74
2023/03/03 12:09:13;;;;;;;36.15;16.60;;;6.80;99.90;;;;;;4983431;28;20027;-74
2023/03/03 12:11:47;;;;;;;33.38;16.88;;;6.80;99.90;;;;;;4983941;28;20044;-74
2023/03/03 12:14:56;;;;;;;31.02;14.65;;;6.70;99.90;;;;;;5020895;28;20016;-74
2023/03/03 12:17:29;;;;;;;34.00;16.35;;;6.70;99.90;;;;;;4999975;28;20030;-75
2023/03/03 12:20:06;;;;;;;36.50;17.33;;;6.80;99.90;;;;;;5011034;28;20914;-76
2023/03/03 12:22:47;;;;;;;34.20;16.58;;;7.00;99.90;;;;;;4994642;28;22943;-74
2023/03/03 12:25:24;;;;;;;30.17;15.38;;;7.40;99.90;;;;;;5011947;28;20391;-74
2023/03/03 12:27:59;;;;;;;32.15;16.50;;;7.70;99.90;;;;;;5026014;28;20135;-75
2023/03/03 12:30:52;;;;;;;29.17;15.07;;;7.80;99.90;;;;;;5070053;28;20120;-71
2023/03/03 12:33:21;;;;;;;35.08;15.77;;;8.10;99.90;;;;;;5014790;28;20595;-73
2023/03/03 12:36:02;;;;;;;29.70;14.60;;;8.40;99.90;;;;;;5001195;28;20058;-75
2023/03/03 12:38:37;;;;;;;27.48;14.50;;;8.40;99.90;;;;;;5007288;28;20035;-74
2023/03/03 12:41:19;;;;;;;29.35;15.15;;;8.30;99.90;;;;;;5016664;28;20111;-73
2023/03/03 12:43:47;;;;;;;29.92;15.20;;;8.10;99.90;;;;;;4998819;28;20031;-76
2023/03/03 12:47:00;;;;;;;28.58;14.35;;;8.00;99.90;;;;;;5008471;28;20011;-74
2023/03/03 12:49:44;;;;;;;25.08;13.93;;;7.80;99.90;;;;;;4994516;28;20438;-73
2023/03/03 12:52:35;;;;;;;29.95;15.55;;;8.00;99.90;;;;;;4993744;28;20022;-74
2023/03/03 12:55:13;;;;;;;26.30;14.18;;;8.10;99.90;;;;;;5014366;28;20089;-74
2023/03/03 12:57:42;;;;;;;24.20;13.05;;;8.10;99.90;;;;;;5010314;28;20050;-74
2023/03/03 13:00:48;;;;;;;26.80;13.55;;;7.90;99.90;;;;;;5000933;28;20474;-74
2023/03/03 13:03:25;;;;;;;30.48;14.57;;;7.90;99.90;;;;;;5014420;28;20501;-74
2023/03/03 13:06:05;;;;;;;26.98;14.00;;;8.10;99.90;;;;;;5015629;28;20173;-74